• Join FlightAware (Why Join?)
  • Login
  • US Flag 
09:16PM EDT


 

Airport Tracker/Info


-or-


 

Live Flight TrackerFlight Track Log ✈ N589H ✈ 18-Mar-2014 ✈ KILM - KBOS

Flight Track Log - Related Links

Times and Time Zones

All times are in EDT time to prevent confusion due to time zone crossing. See the N589H flight status page for this flight to view local times or setup timezone preferences in your user account.

Time Position Orientation Groundspeed Altitude Reporting Facility
EDT Latitude Longitude Course Direction KTS MPH feet Rate Location/Type
04:21PM 34.4233 -77.8756 26° Northeast 215 247 5,400  Level Washington Center
04:22PM 34.4803 -77.8394 28° Northeast 220 253 6,800 1,380 Climbing Washington Center
04:23PM 34.5394 -77.8031 27° Northeast 220 253 8,300 1,560 Climbing Washington Center
04:24PM 34.6995 -77.6226 29° Northeast  Level FlightAware Approximate
04:24PM 34.5967 -77.7619 31° Northeast 225 259 9,900  Level Washington Center
04:25PM 34.6578 -77.7231 28° Northeast 231 266 11,300 1,380 Climbing Washington Center
04:26PM 34.7211 -77.6867 25° Northeast 236 272 12,800 1,500 Climbing Washington Center
04:27PM 34.7822 -77.6453 29° Northeast 248 285 14,300 1,500 Climbing Washington Center
04:28PM 34.8436 -77.5964 33° Northeast 248 285 15,800 1,380 Climbing Washington Center
04:29PM 34.9028 -77.5522 31° Northeast 253 291 17,100 1,080 Climbing Washington Center
04:30PM 34.9683 -77.5031 32° Northeast 258 297 18,000 900 Climbing Washington Center
04:31PM 35.0397 -77.4592 27° Northeast 269 310 19,000 1,020 Climbing Washington Center
04:32PM 35.1094 -77.4125 29° Northeast 280 322 20,100 1,020 Climbing Washington Center
04:33PM 35.1811 -77.3633 29° Northeast 286 329 21,100 1,080 Climbing Washington Center
04:34PM 35.2653 -77.3067 29° Northeast 296 341 22,400 1,140 Climbing Washington Center
04:35PM 35.3411 -77.2572 28° Northeast 296 341 23,400 960 Climbing Washington Center
04:36PM 35.4169 -77.2078 28° Northeast 301 346 24,400 1,020 Climbing Washington Center
04:37PM 35.4969 -77.1533 29° Northeast 307 353 25,500 1,020 Climbing Washington Center
04:38PM 35.5728 -77.1014 29° Northeast 312 359 26,500 960 Climbing Washington Center
04:39PM 35.6506 -77.0489 29° Northeast 312 359 27,500 1,020 Climbing Washington Center
04:40PM 35.7283 -76.9992 27° Northeast 312 359 28,600 1,020 Climbing Washington Center
04:41PM 35.8042 -76.9469 29° Northeast 312 359 29,600 960 Climbing Washington Center
04:42PM 35.8819 -76.8944 29° Northeast 312 359 30,600 660 Climbing Washington Center
04:43PM 35.9597 -76.8417 29° Northeast 312 359 31,000 180 Climbing Washington Center
04:44PM 36.0436 -76.7839 29° Northeast 323 372 31,000  Level Washington Center
04:45PM 36.1297 -76.7261 28° Northeast 337 388 31,000  Level Washington Center
04:46PM 36.2181 -76.6681 28° Northeast 344 396 31,000  Level Washington Center
04:47PM 36.3103 -76.6025 30° Northeast 356 410 31,000  Level Washington Center
04:48PM 36.4028 -76.5392 29° Northeast 368 423 31,000  Level Washington Center
04:49PM 36.4969 -76.4756 28° Northeast 373 429 31,000  Level Washington Center
04:50PM 36.5892 -76.4144 28° Northeast 373 429 31,000  Level Washington Center
04:51PM 36.6836 -76.3481 29° Northeast 373 429 31,000  Level Washington Center
04:52PM 36.7736 -76.2817 31° Northeast 373 429 31,000  Level Washington Center
04:53PM 36.8594 -76.2228 29° Northeast 379 436 31,000  Level Washington Center
04:54PM 36.9558 -76.1636 26° Northeast 379 436 31,000  Level Washington Center
04:55PM 37.0561 -76.1150 21° North 379 436 31,000  Level Washington Center
04:56PM 37.1586 -76.0636 22° Northeast 379 436 31,000  Level Washington Center
04:57PM 37.2569 -76.0094 24° Northeast 379 436 31,000  Level Washington Center
04:58PM 37.3550 -75.9550 24° Northeast 379 436 31,000  Level Washington Center
04:59PM 37.4553 -75.9031 22° Northeast 379 436 31,000  Level Washington Center
05:00PM 37.5533 -75.8511 23° Northeast 379 436 31,000  Level Washington Center
05:01PM 37.6558 -75.8069 19° North 379 436 31,000  Level Washington Center
05:02PM 37.7433 -75.7178 39° Northeast 379 436 31,000  Level Washington Center
05:03PM 37.8311 -75.6311 38° Northeast 391 450 31,000  Level Washington Center
05:04PM 37.9186 -75.5417 39° Northeast 396 456 31,000  Level Washington Center
05:05PM 38.0061 -75.4575 37° Northeast 396 456 31,000  Level Washington Center
05:06PM 38.0978 -75.3753 35° Northeast 396 456 31,000  Level Washington Center
05:07PM 38.1872 -75.2958 35° Northeast 396 456 31,000  Level Washington Center
05:08PM 38.2831 -75.2186 32° Northeast 396 456 31,000  Level Washington Center
05:09PM 38.3850 -75.1308 34° Northeast 396 456 31,000  Level Washington Center
05:10PM 38.4722 -75.0456 37° Northeast 396 456 31,000  Level Washington Center
05:11PM 38.5592 -74.9492 41° Northeast 403 464 31,000  Level Washington Center
05:12PM 38.6461 -74.8606 39° Northeast 408 470 31,000  Level Washington Center
05:13PM 38.7311 -74.7694 40° Northeast 401 461 31,000  Level Washington Center
05:14PM 38.8200 -74.6778 39° Northeast 401 461 31,000  Level Washington Center
05:15PM 38.9069 -74.5833 40° Northeast 401 461 31,000  Level Washington Center
05:16PM 38.9978 -74.4886 39° Northeast 406 467 31,000  Level Washington Center
05:17PM 39.0822 -74.3964 40° Northeast 406 467 31,000  Level Washington Center
05:18PM 39.1708 -74.3011 40° Northeast 406 467 31,000  Level Washington Center
05:19PM 39.2575 -74.2086 40° Northeast 400 460 31,000  Level Washington Center
05:20PM 39.3458 -74.1128 40° Northeast 400 460 31,000  Level Washington Center
05:21PM 39.4344 -74.0197 39° Northeast 400 460 31,000  Level Washington Center
05:22PM 39.5853 -73.8519 41° Northeast 409 471 31,000  Level Boston Center
05:23PM 39.6736 -73.7569 40° Northeast 413 475 31,000  Level Boston Center
05:24PM 39.7603 -73.6617 40° Northeast 411 473 31,000  Level Boston Center
05:25PM 39.8486 -73.5664 40° Northeast 413 475 31,000  Level Boston Center
05:26PM 39.9372 -73.4692 40° Northeast 416 479 31,000  Level Boston Center
05:27PM 40.0356 -73.3589 41° Northeast 413 475 31,000  Level Boston Center
05:29PM 40.1244 -73.2603 40° Northeast 417 480 31,000  Level Boston Center
05:30PM 40.2003 -73.1778 40° Northeast 415 478 31,000  Level Boston Center
05:31PM 40.3064 -73.0592 40° Northeast 417 480 31,000 -180 Level Boston Center
05:32PM 40.3947 -72.9606 40° Northeast 418 481 30,700 -660 Descending Boston Center
05:33PM 40.4822 -72.8611 41° Northeast 417 480 29,700 -1,020 Descending Boston Center
05:34PM 40.5703 -72.7636 40° Northeast 416 479 28,700 -1,020 Descending Boston Center
05:35PM 40.6581 -72.6664 40° Northeast 414 476 27,700 -960 Descending Boston Center
05:36PM 40.7375 -72.5767 41° Northeast 404 465 26,800 -960 Descending Boston Center
05:37PM 40.8189 -72.4819 41° Northeast 394 453 25,800 -1,140 Descending Boston Center
05:38PM 40.9150 -72.3728 41° Northeast 382 440 24,600 -1,080 Descending Boston Center
05:39PM 40.9914 -72.2842 41° Northeast 370 426 23,700 -900 Descending Boston Center
05:40PM 41.0594 -72.2061 41° Northeast 353 406 22,800 -960 Descending Boston Center
05:41PM 41.1322 -72.1236 40° Northeast 346 398 21,800 -900 Descending Boston Center
05:42PM 41.2183 -72.0242 41° Northeast 345 397 21,000 -420 Descending Boston Center
05:43PM 41.2883 -71.9425 41° Northeast 337 388 21,000  Level Boston Center
05:44PM 41.3575 -71.8608 42° Northeast 334 384 21,000 -420 Level Boston Center
05:45PM 41.4303 -71.7819 39° Northeast 336 387 20,200 -900 Descending Boston Center
05:46PM 41.5072 -71.7178 32° Northeast 328 377 19,200 -1,320 Descending Boston Center
05:47PM 41.5931 -71.6531 29° Northeast 334 384 17,500 -1,860 Descending Boston Center
05:48PM 41.6736 -71.5889 31° Northeast 317 365 15,500 -1,980 Descending Boston Center
05:49PM 41.7344 -71.5169 41° Northeast 301 346 13,500 -2,160 Descending Boston Center
05:50PM 41.8083 -71.4408 38° Northeast 313 360 11,100 -1,380 Descending Boston Center
05:51PM 41.8825 -71.3936 25° Northeast 297 342 10,800 -660 Descending Boston Center
05:52PM 41.9539 -71.3417 28° Northeast 296 341 9,800 -1,080 Descending Boston Center
05:53PM 42.0225 -71.2703 38° Northeast 290 334 8,600 -1,320 Descending Boston Center
05:54PM 42.0856 -71.2117 35° Northeast 277 319 7,100 -1,920 Descending Boston Center
05:55PM 42.1456 -71.1553 35° Northeast 265 305 4,700 -1,980 Descending Boston Center
05:56PM 42.2000 -71.1167 28° Northeast 252 290 3,600 -1,260 Descending KA90
05:57PM 42.2500 -71.0667 37° Northeast 215 247 2,500 -1,200 Descending KA90
05:58PM 42.3000 -71.0500 14° North 187 215 1,300 -1,020 Descending KA90
05:59PM 42.3333 -71.0167 36° Northeast 133 153 500 -840 Descending KA90
06:01PM 42.3500 -71.0000 36° Northeast  Level FlightAware Approximate